Time;durP1;ratioP1;P1;durP2;ratioP2;P2;SDS_P1;SDS_P2;PMS_P1;PMS_P2;Temp;Humidity;BMP_temperature;BMP_pressure;BME280_temperature;BME280_humidity;BME280_pressure;Samples;Min_cycle;Max_cycle;Signal;HPM_P1;HPM_P2
2021/12/15 00:00:29;;;;;;;56.83;23.60;;;;;;;-0.44;100.00;101676.97;5103653;28;20027;-74
2021/12/15 00:02:55;;;;;;;64.80;21.90;;;;;;;-0.41;100.00;101684.63;5111829;28;20114;-74
2021/12/15 00:05:23;;;;;;;71.13;24.35;;;;;;;-0.43;100.00;101676.03;5105815;28;20092;-75
2021/12/15 00:07:52;;;;;;;56.65;23.13;;;;;;;-0.44;100.00;101669.16;5112710;28;20092;-74
2021/12/15 00:10:18;;;;;;;58.80;21.45;;;;;;;-0.37;100.00;101674.88;5109213;28;20023;-75
2021/12/15 00:12:44;;;;;;;73.13;24.77;;;;;;;-0.39;100.00;101668.91;5111867;28;20020;-73
2021/12/15 00:15:10;;;;;;;56.90;23.30;;;;;;;-0.44;100.00;101671.75;5112910;28;20027;-72
2021/12/15 00:17:36;;;;;;;59.22;23.40;;;;;;;-0.43;100.00;101670.84;5112700;28;20024;-72
2021/12/15 00:20:05;;;;;;;60.22;23.05;;;;;;;-0.39;100.00;101677.56;5112532;28;20020;-72
2021/12/15 00:22:30;;;;;;;56.28;22.38;;;;;;;-0.39;100.00;101674.97;5112901;28;20019;-72
2021/12/15 00:24:56;;;;;;;65.72;22.73;;;;;;;-0.35;100.00;101680.88;5111580;28;20026;-71
2021/12/15 00:27:22;;;;;;;64.88;23.30;;;;;;;-0.37;100.00;101680.97;5108620;28;20027;-73
2021/12/15 00:29:47;;;;;;;52.00;22.70;;;;;;;-0.38;100.00;101678.41;5105722;28;20056;-71
2021/12/15 00:32:13;;;;;;;63.22;21.88;;;;;;;-0.38;100.00;101686.22;5112909;28;20027;-72
2021/12/15 00:34:40;;;;;;;65.22;23.92;;;;;;;-0.39;100.00;101671.50;5112790;28;20072;-73
2021/12/15 00:37:06;;;;;;;53.33;22.13;;;;;;;-0.39;100.00;101672.34;5112657;28;20023;-73
2021/12/15 00:39:32;;;;;;;51.55;23.17;;;;;;;-0.42;100.00;101675.13;5111558;28;20024;-71
2021/12/15 00:41:59;;;;;;;58.65;20.52;;;;;;;-0.37;100.00;101670.53;5112601;28;20027;-73
2021/12/15 00:44:25;;;;;;;54.80;24.23;;;;;;;-0.42;100.00;101666.47;5112577;28;20027;-72
2021/12/15 00:46:52;;;;;;;55.92;22.10;;;;;;;-0.41;100.00;101676.81;5112695;28;20541;-70
2021/12/15 00:49:19;;;;;;;63.03;22.98;;;;;;;-0.38;100.00;101666.22;5112459;28;20050;-72
2021/12/15 00:51:45;;;;;;;48.25;21.48;;;;;;;-0.45;100.00;101664.00;5110881;28;20034;-72
2021/12/15 00:54:11;;;;;;;59.15;20.00;;;;;;;-0.37;100.00;101667.94;5106430;28;20019;-71
2021/12/15 00:56:37;;;;;;;58.67;20.98;;;;;;;-0.35;100.00;101667.84;5110137;28;20041;-70
2021/12/15 00:59:08;;;;;;;44.80;20.33;;;;;;;-0.40;100.00;101675.03;5116268;28;20023;-70
2021/12/15 01:01:35;;;;;;;52.30;20.70;;;;;;;-0.40;100.00;101686.31;5116400;28;20473;-75
2021/12/15 01:04:02;;;;;;;56.60;23.15;;;;;;;-0.35;100.00;101686.09;5116313;28;20023;-74
2021/12/15 01:06:28;;;;;;;50.45;20.10;;;;;;;-0.37;100.00;101685.31;5116029;28;20039;-72
2021/12/15 01:09:00;;;;;;;57.05;22.45;;;;;;;-0.30;100.00;101678.88;5110647;28;20035;-71
2021/12/15 01:19:53;;;;;;;51.75;19.65;;;;;;;-0.39;100.00;101687.16;5118765;28;20163;-74
2021/12/15 01:22:25;;;;;;;63.10;22.27;;;;;;;-0.31;100.00;101688.44;5114251;27;20038;-74
2021/12/15 01:24:54;;;;;;;60.03;22.52;;;;;;;-0.26;100.00;101682.19;5109013;28;20076;-75
2021/12/15 01:27:21;;;;;;;50.78;20.63;;;;;;;-0.37;100.00;101673.13;5101511;28;20027;-72
2021/12/15 01:29:46;;;;;;;57.42;20.33;;;;;;;-0.32;100.00;101684.16;5112081;28;20107;-72
2021/12/15 01:32:12;;;;;;;51.58;20.77;;;;;;;-0.30;100.00;101679.69;5115664;28;20494;-72
2021/12/15 01:34:38;;;;;;;49.67;19.90;;;;;;;-0.32;100.00;101684.16;5115993;28;20072;-74
2021/12/15 01:37:06;;;;;;;51.60;21.38;;;;;;;-0.33;100.00;101686.84;5109225;28;20020;-71
2021/12/15 01:39:32;;;;;;;50.47;20.13;;;;;;;-0.30;100.00;101686.69;5112968;28;20046;-73
2021/12/15 01:41:58;;;;;;;60.42;20.98;;;;;;;-0.34;100.00;101693.00;5115764;28;20473;-74
2021/12/15 01:49:43;;;;;;;58.58;19.27;;;;;;;-0.25;100.00;101683.84;5113809;28;20026;-72
2021/12/15 01:52:23;;;;;;;56.97;21.05;;;;;;;-0.26;100.00;101687.38;5115625;28;20050;-71
2021/12/15 01:54:56;;;;;;;58.67;23.02;;;;;;;-0.28;100.00;101683.09;5115555;28;20027;-75
2021/12/15 01:57:25;;;;;;;37.90;19.45;;;;;;;-0.32;100.00;101665.06;5118676;28;20031;-72
2021/12/15 01:59:52;;;;;;;54.20;20.40;;;;;;;-0.31;100.00;101666.75;5115877;28;20069;-73
2021/12/15 02:02:18;;;;;;;57.67;21.35;;;;;;;-0.34;100.00;101670.38;5119240;28;20031;-73
2021/12/15 02:04:45;;;;;;;57.20;19.85;;;;;;;-0.30;100.00;101676.25;5115945;28;20023;-73
2021/12/15 02:07:14;;;;;;;64.32;22.95;;;;;;;-0.30;100.00;101682.31;5118979;28;20039;-73
2021/12/15 02:12:25;;;;;;;55.75;20.38;;;;;;;-0.21;100.00;101674.97;5105410;28;20530;-71
2021/12/15 02:14:51;;;;;;;51.47;20.67;;;;;;;-0.24;100.00;101669.91;5113781;28;20031;-76
2021/12/15 02:17:18;;;;;;;39.55;19.17;;;;;;;-0.21;100.00;101675.81;5109410;27;20050;-72
2021/12/15 02:19:44;;;;;;;61.25;21.42;;;;;;;-0.25;100.00;101668.22;5106488;28;20050;-75
2021/12/15 02:22:11;;;;;;;48.45;20.00;;;;;;;-0.18;100.00;101680.03;5113502;28;20461;-73
2021/12/15 02:24:38;;;;;;;39.72;20.08;;;;;;;-0.21;100.00;101674.97;5110620;28;20028;-72
2021/12/15 02:27:05;;;;;;;48.25;20.17;;;;;;;-0.20;100.00;101681.88;5113462;28;20036;-73
2021/12/15 02:29:35;;;;;;;45.55;19.17;;;;;;;-0.23;100.00;101679.41;5114329;28;20020;-72
2021/12/15 02:32:15;;;;;;;42.15;17.33;;;;;;;-0.16;100.00;101688.59;5114507;28;20023;-73
2021/12/15 02:37:17;;;;;;;52.00;19.02;;;;;;;-0.13;100.00;101691.06;5112343;28;20027;-72
2021/12/15 02:40:10;;;;;;;52.72;21.00;;;;;;;-0.16;100.00;101693.81;5113594;28;20468;-73
2021/12/15 02:42:39;;;;;;;53.80;19.55;;;;;;;-0.16;100.00;101686.00;5114342;28;20104;-73
2021/12/15 02:45:10;;;;;;;45.85;20.25;;;;;;;-0.25;100.00;101678.66;5117552;27;20115;-71
2021/12/15 02:47:36;;;;;;;56.58;19.67;;;;;;;-0.18;100.00;101687.84;5104517;27;20074;-74
2021/12/15 02:50:07;;;;;;;54.65;20.33;;;;;;;-0.17;100.00;101700.81;5106477;28;20400;-70
2021/12/15 02:52:34;;;;;;;57.63;18.67;;;;;;;-0.15;100.00;101696.34;5114169;28;20055;-71
2021/12/15 02:54:59;;;;;;;64.25;22.35;;;;;;;-0.16;100.00;101699.88;5110571;27;20034;-72
2021/12/15 02:57:25;;;;;;;49.92;20.88;;;;;;;-0.18;100.00;101680.88;5114033;28;20569;-74
2021/12/15 03:00:01;;;;;;;49.42;17.77;;;;;;;-0.13;100.00;101683.25;5123345;27;20082;-72
2021/12/15 03:03:01;;;;;;;42.50;19.42;;;;;;;-0.18;100.00;101678.25;5117098;27;20031;-72
2021/12/15 03:05:34;;;;;;;53.28;21.00;;;;;;;-0.22;100.00;101683.69;5111722;28;20079;-74
2021/12/15 03:08:11;;;;;;;47.70;19.33;;;;;;;-0.14;100.00;101689.41;5109724;28;20044;-72
2021/12/15 03:16:08;;;;;;;52.38;21.33;;;;;;;-0.16;100.00;101686.84;5104965;28;20030;-75
2021/12/15 03:18:34;;;;;;;54.83;19.67;;;;;;;-0.03;100.00;101687.91;5098643;28;20102;-73
2021/12/15 03:21:09;;;;;;;42.72;18.42;;;;;;;-0.08;100.00;101689.91;5113144;28;20016;-74
2021/12/15 03:23:54;;;;;;;38.38;16.67;;;;;;;-0.06;100.00;101684.63;5102492;28;20032;-72
2021/12/15 03:26:25;;;;;;;44.45;17.08;;;;;;;-0.11;100.00;101686.63;5109593;28;20381;-72
2021/12/15 03:39:23;;;;;;;32.42;16.35;;;;;;;-0.04;100.00;101688.00;5109190;28;20451;-72
2021/12/15 03:41:56;;;;;;;32.05;15.30;;;;;;;-0.08;100.00;101676.84;5120569;27;20034;-74
2021/12/15 03:44:22;;;;;;;36.72;15.77;;;;;;;-0.09;100.00;101669.97;5102554;27;20512;-74
2021/12/15 03:46:48;;;;;;;28.33;14.57;;;;;;;-0.05;100.00;101678.50;5109859;28;20066;-72
2021/12/15 03:49:13;;;;;;;29.48;14.93;;;;;;;-0.11;100.00;101669.19;5114152;27;20051;-75
2021/12/15 03:51:39;;;;;;;29.20;13.02;;;;;;;-0.05;100.00;101678.50;5112990;28;20039;-73
2021/12/15 03:54:05;;;;;;;34.05;15.18;;;;;;;-0.01;100.00;101677.38;5111118;28;20062;-73
2021/12/15 03:56:31;;;;;;;29.17;13.10;;;;;;;-0.05;100.00;101678.50;5125750;27;20103;-73
2021/12/15 03:58:57;;;;;;;32.10;14.95;;;;;;;-0.07;100.00;101673.34;5113881;27;20430;-72
2021/12/15 04:01:23;;;;;;;24.30;13.27;;;;;;;-0.07;100.00;101673.34;5113034;28;20042;-73
2021/12/15 04:03:52;;;;;;;22.90;10.48;;;;;;;-0.09;100.00;101675.19;5112840;28;20461;-73
2021/12/15 04:06:25;;;;;;;28.88;14.85;;;;;;;-0.15;100.00;101669.44;5112872;28;20023;-72
2021/12/15 04:08:52;;;;;;;25.85;12.13;;;;;;;-0.07;100.00;101690.78;5108257;28;20477;-76
2021/12/15 04:11:19;;;;;;;30.67;14.88;;;;;;;-0.06;100.00;101695.91;5109614;28;20043;-71
2021/12/15 04:13:47;;;;;;;25.88;12.90;;;;;;;-0.09;100.00;101690.81;5110433;28;20020;-76
2021/12/15 04:16:28;;;;;;;23.17;12.18;;;;;;;-0.14;100.00;101690.25;5110768;28;20031;-74
2021/12/15 04:18:54;;;;;;;22.40;11.30;;;;;;;-0.14;100.00;101678.97;5112269;28;20031;-72
2021/12/15 04:21:19;;;;;;;19.15;10.52;;;;;;;-0.15;100.00;101688.53;5112729;28;20020;-72
2021/12/15 04:23:53;;;;;;;22.10;11.00;;;;;;;-0.14;100.00;101702.44;5117186;28;20361;-74
2021/12/15 04:26:19;;;;;;;24.73;13.00;;;;;;;-0.10;100.00;101698.72;5111357;28;20346;-74
2021/12/15 04:28:45;;;;;;;22.23;11.75;;;;;;;-0.12;100.00;101701.44;5098104;28;20039;-74
2021/12/15 04:31:14;;;;;;;15.20;10.70;;;;;;;-0.16;100.00;101701.66;5116794;28;20080;-73
2021/12/15 04:33:54;;;;;;;18.08;10.00;;;;;;;-0.17;100.00;101710.41;5116643;28;20027;-73
2021/12/15 04:36:20;;;;;;;17.83;10.98;;;;;;;-0.15;100.00;101703.31;5111830;27;20395;-73
2021/12/15 04:38:46;;;;;;;20.45;11.60;;;;;;;-0.13;100.00;101686.69;5113160;27;20030;-73
2021/12/15 04:41:16;;;;;;;22.42;10.35;;;;;;;0.22;100.00;101703.16;5116227;27;20588;-75
2021/12/15 04:43:43;;;;;;;23.58;10.38;;;;;;;0.06;100.00;101706.63;5116504;28;20480;-77
2021/12/15 04:46:18;;;;;;;23.88;11.50;;;;;;;0.08;100.00;101703.03;5098665;28;20094;-75
2021/12/15 04:48:44;;;;;;;20.38;10.32;;;;;;;-0.02;100.00;101705.25;5114638;28;20047;-74
2021/12/15 04:51:09;;;;;;;23.30;11.07;;;;;;;0.02;100.00;101703.34;5113951;28;20157;-77
2021/12/15 04:53:37;;;;;;;24.23;12.40;;;;;;;0.13;100.00;101714.06;5111507;28;20028;-72
2021/12/15 04:56:04;;;;;;;28.50;13.43;;;;;;;-0.07;100.00;101709.03;5099682;28;20023;-74
2021/12/15 04:58:30;;;;;;;29.40;13.10;;;;;;;0.07;100.00;101708.31;5110184;27;20104;-76
2021/12/15 05:00:59;;;;;;;26.23;13.13;;;;;;;0.22;100.00;101729.25;5112840;27;20077;-76
2021/12/15 05:03:25;;;;;;;28.55;16.02;;;;;;;0.13;100.00;101734.94;5106088;27;20032;-71
2021/12/15 05:05:52;;;;;;;25.70;13.23;;;;;;;0.03;100.00;101741.53;5104438;27;20020;-73
2021/12/15 05:08:18;;;;;;;37.83;13.85;;;;;;;0.16;100.00;101728.72;5104618;27;20040;-72
2021/12/15 05:10:43;;;;;;;29.98;13.10;;;;;;;-0.09;100.00;101731.72;5098258;28;20400;-71
2021/12/15 05:13:10;;;;;;;23.65;10.25;;;;;;;-0.10;100.00;101746.53;5098581;27;20046;-72
2021/12/15 05:15:36;;;;;;;25.83;12.82;;;;;;;0.02;100.00;101745.06;5114355;27;20423;-70
2021/12/15 05:18:04;;;;;;;25.48;12.55;;;;;;;0.00;100.00;101746.94;5109174;27;20030;-72
2021/12/15 05:20:30;;;;;;;26.55;13.48;;;;;;;0.32;100.00;101731.38;5111580;27;20151;-71
2021/12/15 05:22:55;;;;;;;25.40;13.75;;;;;;;0.13;100.00;101728.88;5103198;28;20565;-71
2021/12/15 05:25:21;;;;;;;22.13;12.45;;;;;;;0.21;100.00;101737.16;5098514;28;20566;-71
2021/12/15 05:27:47;;;;;;;20.80;11.40;;;;;;;0.19;100.00;101745.06;5098329;28;20381;-70
2021/12/15 05:30:15;;;;;;;14.73;11.10;;;;;;;0.06;100.00;101737.94;5103798;28;20065;-75
2021/12/15 05:32:41;;;;;;;25.42;9.98;;;;;;;0.07;100.00;101747.44;5103140;28;20019;-74
2021/12/15 05:35:09;;;;;;;21.95;10.93;;;;;;;0.18;100.00;101742.53;5113500;28;20165;-73
2021/12/15 05:37:35;;;;;;;17.70;10.00;;;;;;;-0.07;100.00;101737.72;5111511;28;20038;-74
2021/12/15 05:40:02;;;;;;;19.17;10.23;;;;;;;0.12;100.00;101746.28;5096567;28;20381;-73
2021/12/15 05:42:28;;;;;;;19.25;11.10;;;;;;;-0.02;100.00;101753.97;5112229;28;20399;-74
2021/12/15 05:44:55;;;;;;;19.02;10.40;;;;;;;-0.01;100.00;101753.03;5112304;28;20114;-75
2021/12/15 05:47:22;;;;;;;20.10;10.32;;;;;;;0.01;100.00;101756.44;5100599;28;20204;-75
2021/12/15 05:49:49;;;;;;;18.73;11.90;;;;;;;-0.10;100.00;101756.94;5107586;28;20023;-74
2021/12/15 05:52:15;;;;;;;19.55;10.63;;;;;;;-0.29;100.00;101738.78;5108691;28;20028;-70
2021/12/15 05:54:41;;;;;;;21.65;11.75;;;;;;;-0.18;100.00;101753.88;5111987;28;20160;-74
2021/12/15 05:57:06;;;;;;;18.35;11.45;;;;;;;0.44;100.00;101751.63;5103971;28;20504;-70
2021/12/15 05:59:32;;;;;;;19.13;10.00;;;;;;;-0.04;100.00;101759.25;5109174;27;20114;-70
2021/12/15 06:01:58;;;;;;;20.52;10.35;;;;;;;0.10;100.00;101744.69;5105358;27;20114;-70
2021/12/15 06:04:24;;;;;;;17.50;10.30;;;;;;;0.28;100.00;101755.03;5108962;27;20080;-71
2021/12/15 06:06:49;;;;;;;20.60;10.60;;;;;;;0.45;100.00;101764.63;5108858;28;20027;-70
2021/12/15 06:09:15;;;;;;;19.63;11.40;;;;;;;0.22;100.00;101776.25;5108458;27;20043;-72
2021/12/15 06:11:42;;;;;;;21.95;10.93;;;;;;;0.58;100.00;101774.41;5106107;28;20030;-70
2021/12/15 06:14:08;;;;;;;12.07;9.15;;;;;;;-0.14;100.00;101770.25;5100872;28;20039;-70
2021/12/15 06:16:38;;;;;;;20.73;11.50;;;;;;;-0.03;100.00;101789.63;5112209;28;20072;-70
2021/12/15 06:19:04;;;;;;;20.40;11.40;;;;;;;-0.13;100.00;101787.56;5106276;28;20568;-71
2021/12/15 06:21:31;;;;;;;18.20;11.30;;;;;;;0.67;100.00;101790.47;5113150;28;20374;-70
2021/12/15 06:23:57;;;;;;;22.58;12.60;;;;;;;0.26;100.00;101789.97;5114298;28;20488;-70
2021/12/15 06:26:23;;;;;;;22.55;11.77;;;;;;;0.11;100.00;101796.78;5114569;28;20511;-70
2021/12/15 06:28:48;;;;;;;19.58;12.02;;;;;;;0.00;100.00;101804.31;5114224;27;20043;-70
2021/12/15 06:31:16;;;;;;;20.63;11.75;;;;;;;0.10;100.00;101802.94;5109263;27;20121;-69
2021/12/15 06:33:43;;;;;;;20.25;12.10;;;;;;;0.06;100.00;101805.75;5104767;28;20042;-71
2021/12/15 06:36:12;;;;;;;18.90;12.25;;;;;;;0.03;100.00;101795.50;5111873;28;20080;-71
2021/12/15 06:38:41;;;;;;;23.08;12.82;;;;;;;0.05;100.00;101785.81;5109092;28;20023;-70
2021/12/15 06:41:08;;;;;;;27.48;12.77;;;;;;;0.24;100.00;101808.31;5113819;28;20043;-71
2021/12/15 06:43:36;;;;;;;21.65;12.27;;;;;;;0.38;100.00;101797.19;5114128;28;20024;-72
2021/12/15 06:59:39;;;;;;;;;;;;;;;0.22;100.00;101814.50;5111911;28;20043;-70
2021/12/15 07:02:05;;;;;;;27.80;13.45;;;;;;;0.12;100.00;101821.94;5113637;28;19916;-70
2021/12/15 07:04:30;;;;;;;24.75;10.45;;;;;;;0.06;100.00;101809.22;5110684;28;20024;-70
2021/12/15 07:06:56;;;;;;;20.45;11.18;;;;;;;0.26;100.00;101816.91;5102542;28;20114;-70
2021/12/15 07:09:22;;;;;;;22.67;13.15;;;;;;;0.06;100.00;101824.84;5112523;28;20500;-71
2021/12/15 07:11:53;;;;;;;24.75;15.00;;;;;;;0.17;100.00;101822.59;5099800;28;20102;-70
2021/12/15 07:14:20;;;;;;;27.05;11.88;;;;;;;0.16;100.00;101838.31;5099517;28;20509;-71
2021/12/15 07:16:50;;;;;;;28.90;14.02;;;;;;;0.02;100.00;101836.38;5113689;27;20464;-70
2021/12/15 07:21:51;;;;;;;27.40;14.48;;;;;;;-0.30;100.00;101846.56;5111196;28;20032;-70
2021/12/15 07:24:17;;;;;;;30.25;13.38;;;;;;;-0.26;100.00;101847.28;5111366;28;20027;-71
2021/12/15 07:26:42;;;;;;;27.88;14.05;;;;;;;-0.33;100.00;101832.84;5101213;27;20104;-71
2021/12/15 07:29:08;;;;;;;29.50;14.57;;;;;;;-0.36;100.00;101856.47;5112480;28;20075;-74
2021/12/15 07:31:33;;;;;;;29.73;14.10;;;;;;;-0.37;100.00;101847.81;5106445;28;20031;-80
2021/12/15 07:33:59;;;;;;;28.10;13.65;;;;;;;-0.33;100.00;101846.72;5107094;28;20032;-72
2021/12/15 07:36:24;;;;;;;26.25;12.98;;;;;;;-0.38;100.00;101853.06;5113003;28;20024;-77
2021/12/15 07:38:50;;;;;;;22.13;11.73;;;;;;;-0.46;100.00;101837.78;5112722;28;20019;-76
2021/12/15 07:41:36;;;;;;;20.80;11.88;;;;;;;-0.51;100.00;101841.53;5111785;27;20085;-78
2021/12/15 07:44:03;;;;;;;23.55;13.27;;;;;;;-0.43;100.00;101850.69;5099863;28;20024;-72
2021/12/15 07:46:29;;;;;;;23.77;12.88;;;;;;;-0.29;100.00;101856.13;5109512;28;20114;-79
2021/12/15 07:48:55;;;;;;;25.63;14.35;;;;;;;-0.33;100.00;101846.72;5110898;28;20023;-74
2021/12/15 07:51:21;;;;;;;23.95;13.35;;;;;;;-0.50;100.00;101846.69;5106043;28;20041;-75
2021/12/15 07:53:47;;;;;;;30.08;13.85;;;;;;;-0.36;100.00;101846.88;5108228;28;20036;-75
2021/12/15 07:56:13;;;;;;;26.08;14.73;;;;;;;-0.38;100.00;101833.06;5108590;28;20039;-75
2021/12/15 07:58:39;;;;;;;29.95;15.52;;;;;;;-0.35;100.00;101847.72;5106512;28;20064;-72
2021/12/15 08:01:06;;;;;;;25.65;12.15;;;;;;;-0.48;100.00;101821.38;5112400;28;20051;-78
2021/12/15 08:03:35;;;;;;;19.70;12.32;;;;;;;-0.30;100.00;101857.00;5109764;28;20388;-75
2021/12/15 08:06:01;;;;;;;25.27;13.70;;;;;;;-0.25;100.00;101853.34;5093536;28;20045;-74
2021/12/15 08:08:28;;;;;;;35.95;15.00;;;;;;;-0.21;100.00;101860.13;5105936;28;20047;-73
2021/12/15 08:10:56;;;;;;;24.95;14.88;;;;;;;-0.22;100.00;101854.06;5111291;28;20032;-72
2021/12/15 08:13:25;;;;;;;30.40;14.18;;;;;;;-0.26;100.00;101859.50;5111230;28;20027;-75
2021/12/15 08:15:51;;;;;;;28.95;13.82;;;;;;;-0.39;100.00;101857.44;5115951;28;20026;-74
2021/12/15 08:18:16;;;;;;;29.35;13.85;;;;;;;-0.54;100.00;101845.13;5121402;28;20050;-76
2021/12/15 08:20:42;;;;;;;32.40;15.68;;;;;;;-0.40;100.00;101871.41;5109462;28;20058;-72
2021/12/15 08:23:07;;;;;;;44.33;16.77;;;;;;;-0.40;100.00;101866.19;5098970;28;20040;-74
2021/12/15 08:25:35;;;;;;;29.52;14.30;;;;;;;-0.64;100.00;101842.09;5108977;28;20076;-76
2021/12/15 08:28:02;;;;;;;34.97;16.73;;;;;;;-0.50;100.00;101872.75;5109648;28;20103;-76
2021/12/15 08:30:31;;;;;;;37.50;16.00;;;;;;;-0.68;100.00;101871.81;5086989;28;20045;-73
2021/12/15 08:33:00;;;;;;;38.47;18.20;;;;;;;-0.67;100.00;101877.88;5108732;28;20027;-73
2021/12/15 08:35:29;;;;;;;43.63;17.73;;;;;;;-0.74;100.00;101872.09;5101576;28;20020;-70
2021/12/15 08:37:57;;;;;;;48.13;18.83;;;;;;;-0.74;100.00;101873.84;5105653;28;20020;-75
2021/12/15 08:40:25;;;;;;;32.65;17.10;;;;;;;-0.69;100.00;101890.13;5106786;28;20397;-76
2021/12/15 08:42:51;;;;;;;36.13;16.05;;;;;;;-0.71;100.00;101887.59;5103131;28;20039;-75
2021/12/15 08:45:18;;;;;;;31.58;15.85;;;;;;;-0.75;100.00;101891.25;5096189;28;20028;-76
2021/12/15 08:47:43;;;;;;;37.63;17.35;;;;;;;-0.64;100.00;101889.03;5102565;28;20024;-79
2021/12/15 08:50:14;;;;;;;40.95;18.77;;;;;;;-0.84;100.00;101871.66;5107385;28;20038;-77
2021/12/15 08:52:40;;;;;;;51.22;16.88;;;;;;;-0.74;100.00;101887.72;5111523;28;20032;-71
2021/12/15 08:55:07;;;;;;;40.33;17.73;;;;;;;-0.80;100.00;101882.81;5110606;28;20034;-72
2021/12/15 08:57:32;;;;;;;37.97;19.02;;;;;;;-0.84;100.00;101868.22;5106336;28;20027;-72
2021/12/15 08:59:58;;;;;;;44.03;17.55;;;;;;;-0.87;100.00;101869.22;5108169;28;20038;-72
2021/12/15 09:02:24;;;;;;;58.88;18.05;;;;;;;-0.95;100.00;101868.72;5108123;28;20070;-74
2021/12/15 09:04:49;;;;;;;33.67;17.25;;;;;;;-1.12;100.00;101879.00;5099643;28;20115;-72
2021/12/15 09:07:15;;;;;;;28.17;15.90;;;;;;;-1.07;100.00;101876.19;5098231;28;20028;-76
2021/12/15 09:09:41;;;;;;;35.92;16.45;;;;;;;-1.08;100.00;101877.97;5103926;28;20020;-76
2021/12/15 09:12:07;;;;;;;29.63;13.70;;;;;;;-1.23;100.00;101882.06;5106314;28;20058;-76
2021/12/15 09:14:33;;;;;;;40.47;16.90;;;;;;;-1.00;100.00;101882.84;5107247;28;20023;-76
2021/12/15 09:17:00;;;;;;;40.30;16.48;;;;;;;-0.93;100.00;101879.91;5105595;27;20555;-73
2021/12/15 09:19:26;;;;;;;41.75;15.70;;;;;;;-1.04;100.00;101876.91;5102081;28;20472;-74
2021/12/15 09:21:52;;;;;;;33.45;14.05;;;;;;;-1.01;100.00;101875.94;5107693;27;20503;-75
2021/12/15 09:24:20;;;;;;;39.38;16.65;;;;;;;-1.03;100.00;101878.59;5108048;27;20051;-78
2021/12/15 09:26:46;;;;;;;36.17;16.10;;;;;;;-0.94;100.00;101878.22;5111552;28;20618;-71
2021/12/15 09:29:12;;;;;;;30.25;15.23;;;;;;;-0.83;100.00;101877.72;5112521;28;20062;-71
2021/12/15 09:31:39;;;;;;;27.17;14.63;;;;;;;-0.80;100.00;101874.16;5114696;28;20102;-72
2021/12/15 09:34:06;;;;;;;37.60;17.00;;;;;;;-0.83;100.00;101867.28;5114258;27;20114;-70
2021/12/15 09:36:32;;;;;;;27.40;15.18;;;;;;;-0.65;100.00;101870.84;5111721;28;20019;-70
2021/12/15 09:39:09;;;;;;;27.30;15.20;;;;;;;-0.78;100.00;101873.16;5115246;27;20023;-71
2021/12/15 09:41:36;;;;;;;21.70;13.20;;;;;;;-0.76;100.00;101863.50;5102939;28;20096;-72
2021/12/15 09:44:08;;;;;;;35.13;17.13;;;;;;;-0.81;100.00;101872.44;5103863;27;20052;-70
2021/12/15 09:47:03;;;;;;;40.72;15.40;;;;;;;-0.93;100.00;101869.47;5102657;27;20092;-66
2021/12/15 10:02:00;;;;;;;43.90;15.73;;;;;;;-0.73;100.00;101866.00;5111328;28;20046;-70
2021/12/15 10:03:33;;;;;;;36.33;14.77;;;;;;;-0.68;100.00;101870.97;5106430;27;20442;-72
2021/12/15 10:06:23;;;;;;;32.80;13.52;;;;;;;-0.55;100.00;101866.91;5105257;28;20023;-69
2021/12/15 10:20:16;;;;;;;20.27;12.00;;;;;;;-0.57;100.00;101858.31;5086164;28;20170;-68
2021/12/15 10:22:45;;;;;;;23.58;14.02;;;;;;;-0.42;100.00;101857.59;5083967;28;20043;-70
2021/12/15 10:25:13;;;;;;;31.10;14.10;;;;;;;-0.48;100.00;101863.09;5102219;28;20059;-71
2021/12/15 10:27:51;;;;;;;23.75;12.80;;;;;;;-0.63;100.00;101861.19;5112527;28;20036;-70
2021/12/15 10:30:39;;;;;;;14.57;11.15;;;;;;;-0.81;100.00;101856.78;5116246;27;20023;-69
2021/12/15 10:33:10;;;;;;;30.05;12.43;;;;;;;-0.95;100.00;101850.47;5101097;28;20085;-78
2021/12/15 10:35:58;;;;;;;23.33;12.25;;;;;;;-0.87;100.00;101850.13;5108148;28;20373;-74
2021/12/15 10:38:45;;;;;;;21.33;11.02;;;;;;;-0.87;100.00;101845.75;5102099;28;20434;-70
2021/12/15 10:41:36;;;;;;;25.83;12.73;;;;;;;-0.80;100.00;101845.50;5109889;28;20528;-75
2021/12/15 10:44:06;;;;;;;23.85;13.13;;;;;;;-0.97;100.00;101846.22;5106536;27;20053;-71
2021/12/15 10:46:37;;;;;;;21.67;11.52;;;;;;;-0.91;100.00;101856.38;5107630;27;20028;-72
2021/12/15 10:49:13;;;;;;;27.63;13.68;;;;;;;-0.75;100.00;101854.75;5103819;27;20069;-72
2021/12/15 10:51:49;;;;;;;20.42;11.07;;;;;;;-0.92;100.00;101842.50;5102025;28;20028;-75
2021/12/15 10:54:44;;;;;;;19.98;12.73;;;;;;;-0.85;100.00;101850.91;5104144;28;20054;-68
2021/12/15 10:57:16;;;;;;;22.98;12.18;;;;;;;-1.09;100.00;101847.63;5105750;27;20338;-69
2021/12/15 10:59:48;;;;;;;29.55;13.10;;;;;;;-0.89;100.00;101852.78;5094920;28;20036;-69
2021/12/15 11:02:34;;;;;;;23.48;12.55;;;;;;;-0.96;100.00;101853.13;5101051;28;20026;-72
2021/12/15 11:05:13;;;;;;;27.17;14.20;;;;;;;-0.85;100.00;101861.31;5098884;28;20113;-70
2021/12/15 11:07:41;;;;;;;28.65;13.45;;;;;;;-0.79;100.00;101852.38;5101399;28;20397;-70
2021/12/15 11:10:22;;;;;;;28.48;12.73;;;;;;;-0.80;100.00;101851.53;5101293;28;20138;-73
2021/12/15 11:12:57;;;;;;;20.25;13.40;;;;;;;-0.93;100.00;101840.81;5101669;27;20020;-74
2021/12/15 11:15:29;;;;;;;33.15;12.98;;;;;;;-0.96;100.00;101842.69;5100827;28;20031;-71
2021/12/15 11:17:59;;;;;;;19.55;11.90;;;;;;;-0.95;100.00;101831.41;5104223;28;20370;-72
2021/12/15 11:20:31;;;;;;;25.42;10.57;;;;;;;-1.03;100.00;101838.69;5107904;27;20038;-67
2021/12/15 11:23:10;;;;;;;18.23;11.15;;;;;;;-1.18;100.00;101838.44;5109278;28;20050;-70
2021/12/15 11:25:38;;;;;;;28.85;14.32;;;;;;;-1.13;100.00;101848.66;5110710;28;20029;-72
2021/12/15 11:28:06;;;;;;;22.95;13.43;;;;;;;-1.10;100.00;101843.34;5099769;28;20498;-68
2021/12/15 11:30:37;;;;;;;33.33;15.52;;;;;;;-0.93;100.00;101848.63;5107628;28;20032;-69
2021/12/15 11:33:10;;;;;;;31.50;13.65;;;;;;;-1.24;100.00;101843.94;5105417;28;20021;-69
2021/12/15 11:35:43;;;;;;;28.30;14.07;;;;;;;-1.30;100.00;101843.34;5098975;28;20035;-73
2021/12/15 11:38:17;;;;;;;35.05;13.05;;;;;;;-1.35;100.00;101845.31;5110349;28;20027;-72
2021/12/15 11:40:49;;;;;;;23.17;13.60;;;;;;;-1.25;100.00;101847.47;5107397;27;20032;-71
2021/12/15 11:43:42;;;;;;;26.77;14.50;;;;;;;-1.27;100.00;101848.41;5105779;28;20027;-69
2021/12/15 11:46:13;;;;;;;30.67;14.00;;;;;;;-1.38;100.00;101840.25;5104243;28;20032;-72
2021/12/15 11:48:39;;;;;;;32.45;12.52;;;;;;;-1.50;100.00;101834.63;5097392;28;20118;-74
2021/12/15 11:51:08;;;;;;;24.88;11.85;;;;;;;-1.53;100.00;101847.78;5101260;28;20131;-72
2021/12/15 11:53:46;;;;;;;29.02;13.63;;;;;;;-1.49;100.00;101843.28;5108309;28;20039;-69
2021/12/15 11:56:19;;;;;;;29.10;13.40;;;;;;;-1.46;100.00;101854.44;5108196;28;20038;-74
2021/12/15 11:58:46;;;;;;;33.45;16.38;;;;;;;-1.43;100.00;101850.84;5103160;28;20024;-72
2021/12/15 12:01:40;;;;;;;34.25;14.60;;;;;;;-1.37;100.00;101847.97;5099091;28;20062;-70
2021/12/15 12:04:29;;;;;;;36.58;16.10;;;;;;;-1.47;100.00;101849.25;5098831;28;20028;-68
2021/12/15 12:07:09;;;;;;;28.52;14.02;;;;;;;-1.38;100.00;101842.84;5101431;28;20464;-66
2021/12/15 12:09:38;;;;;;;31.15;15.13;;;;;;;-1.44;100.00;101841.34;5107331;28;20097;-72
2021/12/15 12:12:06;;;;;;;32.22;12.57;;;;;;;-1.48;100.00;101844.97;5112306;28;20023;-76
2021/12/15 12:14:40;;;;;;;19.52;11.60;;;;;;;-1.49;100.00;101853.69;5105704;28;20016;-67
2021/12/15 12:17:12;;;;;;;31.98;15.07;;;;;;;-1.44;100.00;101852.59;5096316;28;20281;-74
2021/12/15 12:19:55;;;;;;;30.23;14.27;;;;;;;-1.42;100.00;101855.13;5103623;28;20097;-72
2021/12/15 12:22:23;;;;;;;23.98;13.43;;;;;;;-1.38;100.00;101853.25;5107280;28;20031;-73
2021/12/15 12:24:53;;;;;;;20.85;13.02;;;;;;;-1.34;100.00;101863.44;5104445;28;20380;-68